sensor_id;sensor_type;location;lat;lon;timestamp;pressure;altitude;pressure_sealevel;temperature;humidity
7441;BME280;29616;51.950;8.572;2022-08-07T00:00:23;101073.97;;;14.22;100.00
7441;BME280;29616;51.950;8.572;2022-08-07T00:02:51;101064.16;;;14.19;100.00
7441;BME280;29616;51.950;8.572;2022-08-07T00:05:22;101065.13;;;14.28;100.00
7441;BME280;29616;51.950;8.572;2022-08-07T00:07:51;101041.75;;;14.14;100.00
7441;BME280;29616;51.950;8.572;2022-08-07T00:10:26;101048.88;;;14.07;100.00
7441;BME280;29616;51.950;8.572;2022-08-07T00:12:58;101047.75;;;14.00;100.00
7441;BME280;29616;51.950;8.572;2022-08-07T00:15:36;101059.16;;;14.05;100.00
7441;BME280;29616;51.950;8.572;2022-08-07T00:18:13;101071.78;;;13.98;100.00
7441;BME280;29616;51.950;8.572;2022-08-07T00:20:46;101066.03;;;13.91;100.00
7441;BME280;29616;51.950;8.572;2022-08-07T00:23:17;101050.75;;;13.79;100.00
7441;BME280;29616;51.950;8.572;2022-08-07T00:25:47;101053.06;;;13.74;100.00
7441;BME280;29616;51.950;8.572;2022-08-07T00:28:27;101051.34;;;13.73;100.00
7441;BME280;29616;51.950;8.572;2022-08-07T00:31:01;101053.94;;;13.75;100.00
7441;BME280;29616;51.950;8.572;2022-08-07T00:33:39;101060.63;;;13.63;100.00
7441;BME280;29616;51.950;8.572;2022-08-07T00:36:08;101035.25;;;13.42;100.00
7441;BME280;29616;51.950;8.572;2022-08-07T00:38:37;101045.81;;;13.36;100.00
7441;BME280;29616;51.950;8.572;2022-08-07T00:41:06;101053.50;;;13.23;100.00
7441;BME280;29616;51.950;8.572;2022-08-07T00:43:41;101056.41;;;13.12;100.00
7441;BME280;29616;51.950;8.572;2022-08-07T00:46:29;101058.13;;;13.04;100.00
7441;BME280;29616;51.950;8.572;2022-08-07T00:48:59;101045.41;;;12.84;100.00
7441;BME280;29616;51.950;8.572;2022-08-07T00:51:29;101055.97;;;12.69;100.00
7441;BME280;29616;51.950;8.572;2022-08-07T00:54:19;101054.94;;;12.60;100.00
7441;BME280;29616;51.950;8.572;2022-08-07T00:56:49;101054.19;;;12.49;100.00
7441;BME280;29616;51.950;8.572;2022-08-07T00:59:17;101054.91;;;12.41;100.00
7441;BME280;29616;51.950;8.572;2022-08-07T01:02:02;101053.00;;;12.32;100.00
7441;BME280;29616;51.950;8.572;2022-08-07T01:04:34;101049.53;;;12.21;100.00
7441;BME280;29616;51.950;8.572;2022-08-07T01:07:09;101045.75;;;12.12;100.00
7441;BME280;29616;51.950;8.572;2022-08-07T01:09:40;101033.81;;;12.13;100.00
7441;BME280;29616;51.950;8.572;2022-08-07T01:12:28;101032.28;;;11.90;100.00
7441;BME280;29616;51.950;8.572;2022-08-07T01:14:58;101030.50;;;11.79;100.00
7441;BME280;29616;51.950;8.572;2022-08-07T01:17:30;101030.88;;;11.65;100.00
7441;BME280;29616;51.950;8.572;2022-08-07T01:20:04;101034.75;;;11.63;100.00
7441;BME280;29616;51.950;8.572;2022-08-07T01:22:36;101036.44;;;11.54;100.00
7441;BME280;29616;51.950;8.572;2022-08-07T01:25:24;101041.03;;;11.53;100.00
7441;BME280;29616;51.950;8.572;2022-08-07T01:28:15;101031.47;;;11.38;100.00
7441;BME280;29616;51.950;8.572;2022-08-07T01:30:44;101008.97;;;11.35;100.00
7441;BME280;29616;51.950;8.572;2022-08-07T01:33:17;101031.22;;;11.51;100.00
7441;BME280;29616;51.950;8.572;2022-08-07T01:35:49;101041.03;;;11.53;100.00
7441;BME280;29616;51.950;8.572;2022-08-07T01:38:25;101037.91;;;11.37;100.00
7441;BME280;29616;51.950;8.572;2022-08-07T01:41:03;101052.53;;;11.47;100.00
7441;BME280;29616;51.950;8.572;2022-08-07T01:43:33;101049.59;;;11.39;100.00
7441;BME280;29616;51.950;8.572;2022-08-07T01:46:06;101052.69;;;11.25;100.00
7441;BME280;29616;51.950;8.572;2022-08-07T01:48:41;101037.81;;;11.18;100.00
7441;BME280;29616;51.950;8.572;2022-08-07T01:51:21;101037.03;;;11.07;100.00
7441;BME280;29616;51.950;8.572;2022-08-07T01:54:12;101049.00;;;10.94;100.00
7441;BME280;29616;51.950;8.572;2022-08-07T01:57:04;101042.34;;;10.87;100.00
7441;BME280;29616;51.950;8.572;2022-08-07T01:59:39;101040.84;;;10.83;100.00
7441;BME280;29616;51.950;8.572;2022-08-07T02:02:16;101036.53;;;10.81;100.00
7441;BME280;29616;51.950;8.572;2022-08-07T02:05:07;101033.00;;;10.69;100.00
7441;BME280;29616;51.950;8.572;2022-08-07T02:08:01;101033.91;;;10.59;100.00
7441;BME280;29616;51.950;8.572;2022-08-07T02:10:37;101028.31;;;10.60;100.00
7441;BME280;29616;51.950;8.572;2022-08-07T02:13:09;101008.84;;;10.54;100.00
7441;BME280;29616;51.950;8.572;2022-08-07T02:15:48;101023.13;;;10.46;100.00
7441;BME280;29616;51.950;8.572;2022-08-07T02:18:19;101011.00;;;10.39;100.00
7441;BME280;29616;51.950;8.572;2022-08-07T02:20:51;101024.66;;;10.39;100.00
7441;BME280;29616;51.950;8.572;2022-08-07T02:23:23;101025.28;;;10.43;100.00
7441;BME280;29616;51.950;8.572;2022-08-07T02:25:53;101026.16;;;10.43;100.00
7441;BME280;29616;51.950;8.572;2022-08-07T02:28:42;101037.84;;;10.34;100.00
7441;BME280;29616;51.950;8.572;2022-08-07T02:31:11;101018.28;;;10.18;100.00
7441;BME280;29616;51.950;8.572;2022-08-07T02:33:54;101026.19;;;10.10;100.00
7441;BME280;29616;51.950;8.572;2022-08-07T02:36:43;101021.78;;;9.98;100.00
7441;BME280;29616;51.950;8.572;2022-08-07T02:39:15;101018.81;;;9.90;100.00
7441;BME280;29616;51.950;8.572;2022-08-07T02:42:06;101019.06;;;9.87;100.00
7441;BME280;29616;51.950;8.572;2022-08-07T02:44:43;101010.09;;;9.96;100.00
7441;BME280;29616;51.950;8.572;2022-08-07T02:47:15;101013.94;;;9.93;100.00
7441;BME280;29616;51.950;8.572;2022-08-07T02:49:52;101011.84;;;9.97;100.00
7441;BME280;29616;51.950;8.572;2022-08-07T02:52:29;101007.13;;;9.88;100.00
7441;BME280;29616;51.950;8.572;2022-08-07T02:55:05;101015.19;;;9.89;100.00
7441;BME280;29616;51.950;8.572;2022-08-07T02:57:58;101016.09;;;9.79;100.00
7441;BME280;29616;51.950;8.572;2022-08-07T03:00:31;101019.66;;;9.90;100.00
7441;BME280;29616;51.950;8.572;2022-08-07T03:03:01;101014.94;;;9.92;100.00
7441;BME280;29616;51.950;8.572;2022-08-07T03:05:34;101013.44;;;9.88;100.00
7441;BME280;29616;51.950;8.572;2022-08-07T03:08:04;101013.09;;;9.82;100.00
7441;BME280;29616;51.950;8.572;2022-08-07T03:10:40;101014.72;;;9.73;100.00
7441;BME280;29616;51.950;8.572;2022-08-07T03:13:17;101023.31;;;9.68;100.00
7441;BME280;29616;51.950;8.572;2022-08-07T03:15:47;101018.56;;;9.59;100.00
7441;BME280;29616;51.950;8.572;2022-08-07T03:18:25;101023.16;;;9.59;100.00
7441;BME280;29616;51.950;8.572;2022-08-07T03:21:03;101019.69;;;9.57;100.00
7441;BME280;29616;51.950;8.572;2022-08-07T03:23:38;100997.38;;;9.52;100.00
7441;BME280;29616;51.950;8.572;2022-08-07T03:26:30;101011.63;;;9.66;100.00
7441;BME280;29616;51.950;8.572;2022-08-07T03:29:05;101021.56;;;9.67;100.00
7441;BME280;29616;51.950;8.572;2022-08-07T03:31:40;101016.97;;;9.68;100.00
7441;BME280;29616;51.950;8.572;2022-08-07T03:34:15;101015.59;;;9.62;100.00
7441;BME280;29616;51.950;8.572;2022-08-07T03:36:52;101014.97;;;9.59;100.00
7441;BME280;29616;51.950;8.572;2022-08-07T03:39:23;101013.59;;;9.53;100.00
7441;BME280;29616;51.950;8.572;2022-08-07T03:42:14;101017.84;;;9.46;100.00
7441;BME280;29616;51.950;8.572;2022-08-07T03:44:44;101009.16;;;9.41;100.00
7441;BME280;29616;51.950;8.572;2022-08-07T03:47:24;101003.44;;;9.33;100.00
7441;BME280;29616;51.950;8.572;2022-08-07T03:49:56;100997.09;;;9.22;100.00
7441;BME280;29616;51.950;8.572;2022-08-07T03:52:31;101000.47;;;9.25;100.00
7441;BME280;29616;51.950;8.572;2022-08-07T03:55:03;101007.06;;;9.34;100.00
7441;BME280;29616;51.950;8.572;2022-08-07T03:57:36;101020.66;;;9.45;100.00
7441;BME280;29616;51.950;8.572;2022-08-07T04:00:31;101010.63;;;9.45;100.00
7441;BME280;29616;51.950;8.572;2022-08-07T04:03:02;101005.16;;;9.45;100.00
7441;BME280;29616;51.950;8.572;2022-08-07T04:05:37;101009.41;;;9.49;100.00
7441;BME280;29616;51.950;8.572;2022-08-07T04:08:17;101013.13;;;9.59;100.00
7441;BME280;29616;51.950;8.572;2022-08-07T04:10:47;101007.03;;;9.56;100.00
7441;BME280;29616;51.950;8.572;2022-08-07T04:13:37;101013.13;;;9.59;100.00
7441;BME280;29616;51.950;8.572;2022-08-07T04:16:28;101013.50;;;9.66;100.00
7441;BME280;29616;51.950;8.572;2022-08-07T04:18:59;101012.50;;;9.67;100.00
7441;BME280;29616;51.950;8.572;2022-08-07T04:21:39;101005.41;;;9.64;100.00
7441;BME280;29616;51.950;8.572;2022-08-07T04:24:29;101018.44;;;9.72;100.00
7441;BME280;29616;51.950;8.572;2022-08-07T04:27:06;101017.22;;;9.76;100.00
7441;BME280;29616;51.950;8.572;2022-08-07T04:29:45;101018.53;;;9.93;100.00
7441;BME280;29616;51.950;8.572;2022-08-07T04:32:53;101009.72;;;10.00;100.00
7441;BME280;29616;51.950;8.572;2022-08-07T04:35:25;101012.69;;;10.08;100.00
7441;BME280;29616;51.950;8.572;2022-08-07T04:38:04;101017.53;;;10.16;100.00
7441;BME280;29616;51.950;8.572;2022-08-07T04:40:38;101012.66;;;10.19;100.00
7441;BME280;29616;51.950;8.572;2022-08-07T04:43:24;101009.91;;;10.30;100.00
7441;BME280;29616;51.950;8.572;2022-08-07T04:46:17;101020.41;;;10.46;100.00
7441;BME280;29616;51.950;8.572;2022-08-07T04:49:09;101018.34;;;10.59;100.00
7441;BME280;29616;51.950;8.572;2022-08-07T04:51:51;101020.78;;;10.73;100.00
7441;BME280;29616;51.950;8.572;2022-08-07T04:54:27;101013.66;;;11.03;100.00
7441;BME280;29616;51.950;8.572;2022-08-07T04:57:04;101022.28;;;11.49;100.00
7441;BME280;29616;51.950;8.572;2022-08-07T04:59:56;101028.53;;;11.91;100.00
7441;BME280;29616;51.950;8.572;2022-08-07T05:02:42;101025.75;;;12.21;100.00
7441;BME280;29616;51.950;8.572;2022-08-07T05:05:19;101028.69;;;12.58;100.00
7441;BME280;29616;51.950;8.572;2022-08-07T05:08:11;101027.94;;;12.94;100.00
7441;BME280;29616;51.950;8.572;2022-08-07T05:10:44;101039.91;;;13.31;100.00
7441;BME280;29616;51.950;8.572;2022-08-07T05:13:15;101019.66;;;13.42;100.00
7441;BME280;29616;51.950;8.572;2022-08-07T05:16:06;101028.59;;;13.54;100.00
7441;BME280;29616;51.950;8.572;2022-08-07T05:18:39;101021.34;;;14.17;100.00
7441;BME280;29616;51.950;8.572;2022-08-07T05:21:11;101026.56;;;14.82;100.00
7441;BME280;29616;51.950;8.572;2022-08-07T05:23:44;101028.84;;;15.30;100.00
7441;BME280;29616;51.950;8.572;2022-08-07T05:26:16;101016.78;;;15.57;100.00
7441;BME280;29616;51.950;8.572;2022-08-07T05:28:55;101008.72;;;15.89;100.00
7441;BME280;29616;51.950;8.572;2022-08-07T05:31:30;101020.16;;;16.52;100.00
7441;BME280;29616;51.950;8.572;2022-08-07T05:34:02;101022.03;;;16.52;100.00
7441;BME280;29616;51.950;8.572;2022-08-07T05:36:42;101018.44;;;16.01;100.00
7441;BME280;29616;51.950;8.572;2022-08-07T05:39:29;101015.03;;;16.23;100.00
7441;BME280;29616;51.950;8.572;2022-08-07T05:42:17;101024.25;;;16.48;100.00
7441;BME280;29616;51.950;8.572;2022-08-07T05:45:06;101024.59;;;16.45;100.00
7441;BME280;29616;51.950;8.572;2022-08-07T05:47:57;101030.88;;;16.63;100.00
7441;BME280;29616;51.950;8.572;2022-08-07T05:50:37;101023.69;;;16.94;100.00
7441;BME280;29616;51.950;8.572;2022-08-07T05:53:12;101040.22;;;16.78;100.00
7441;BME280;29616;51.950;8.572;2022-08-07T05:56:01;101030.72;;;16.65;100.00
7441;BME280;29616;51.950;8.572;2022-08-07T05:58:37;101037.81;;;16.75;100.00
7441;BME280;29616;51.950;8.572;2022-08-07T06:01:10;101028.88;;;16.98;100.00
7441;BME280;29616;51.950;8.572;2022-08-07T06:03:44;101040.06;;;17.28;100.00
7441;BME280;29616;51.950;8.572;2022-08-07T06:06:25;101031.88;;;17.83;100.00
7441;BME280;29616;51.950;8.572;2022-08-07T06:08:57;101032.03;;;18.29;100.00
7441;BME280;29616;51.950;8.572;2022-08-07T06:11:25;101024.81;;;18.28;100.00
7441;BME280;29616;51.950;8.572;2022-08-07T06:13:54;101041.69;;;18.41;100.00
7441;BME280;29616;51.950;8.572;2022-08-07T06:16:45;101042.50;;;18.57;100.00
7441;BME280;29616;51.950;8.572;2022-08-07T06:19:23;101034.53;;;19.08;100.00
7441;BME280;29616;51.950;8.572;2022-08-07T06:22:14;101035.88;;;19.12;100.00
7441;BME280;29616;51.950;8.572;2022-08-07T06:25:01;101045.88;;;19.73;100.00
7441;BME280;29616;51.950;8.572;2022-08-07T06:27:30;101044.00;;;20.46;100.00
7441;BME280;29616;51.950;8.572;2022-08-07T06:30:18;101040.34;;;21.03;100.00
7441;BME280;29616;51.950;8.572;2022-08-07T06:32:58;101038.03;;;20.85;100.00
7441;BME280;29616;51.950;8.572;2022-08-07T06:35:27;101044.44;;;20.65;100.00
7441;BME280;29616;51.950;8.572;2022-08-07T06:38:12;101041.94;;;23.05;100.00
7441;BME280;29616;51.950;8.572;2022-08-07T06:40:49;101041.06;;;22.50;100.00
7441;BME280;29616;51.950;8.572;2022-08-07T06:43:21;101049.53;;;22.29;100.00
7441;BME280;29616;51.950;8.572;2022-08-07T06:46:03;101052.03;;;24.24;100.00
7441;BME280;29616;51.950;8.572;2022-08-07T06:48:38;101045.44;;;25.38;86.87
7441;BME280;29616;51.950;8.572;2022-08-07T06:51:09;101039.50;;;24.39;99.33
7441;BME280;29616;51.950;8.572;2022-08-07T06:53:41;101040.41;;;25.15;94.44
7441;BME280;29616;51.950;8.572;2022-08-07T06:56:33;101058.50;;;25.75;84.51
7441;BME280;29616;51.950;8.572;2022-08-07T06:59:23;101056.63;;;27.33;73.09
7441;BME280;29616;51.950;8.572;2022-08-07T07:02:16;101052.44;;;27.65;67.54
7441;BME280;29616;51.950;8.572;2022-08-07T07:05:05;101060.03;;;26.39;68.04
7441;BME280;29616;51.950;8.572;2022-08-07T07:07:38;101061.22;;;27.27;63.76
7441;BME280;29616;51.950;8.572;2022-08-07T07:10:28;101056.34;;;27.64;60.10
7441;BME280;29616;51.950;8.572;2022-08-07T07:13:01;101051.09;;;28.49;60.24
7441;BME280;29616;51.950;8.572;2022-08-07T07:15:33;101058.19;;;29.92;54.59
7441;BME280;29616;51.950;8.572;2022-08-07T07:18:07;101051.94;;;29.90;52.72
7441;BME280;29616;51.950;8.572;2022-08-07T07:20:38;101049.28;;;28.94;55.64
7441;BME280;29616;51.950;8.572;2022-08-07T07:23:11;101040.53;;;29.07;53.00
7441;BME280;29616;51.950;8.572;2022-08-07T07:26:01;101044.16;;;29.64;50.62
7441;BME280;29616;51.950;8.572;2022-08-07T07:28:53;101037.19;;;26.90;61.33
7441;BME280;29616;51.950;8.572;2022-08-07T07:31:45;101030.91;;;26.58;61.05
7441;BME280;29616;51.950;8.572;2022-08-07T07:34:17;101035.34;;;25.62;63.21
7441;BME280;29616;51.950;8.572;2022-08-07T07:36:47;101024.69;;;25.46;66.00
7441;BME280;29616;51.950;8.572;2022-08-07T07:39:20;101028.81;;;25.43;69.59
7441;BME280;29616;51.950;8.572;2022-08-07T07:41:51;101018.00;;;25.22;67.46
7441;BME280;29616;51.950;8.572;2022-08-07T07:44:42;101030.84;;;26.28;69.28
7441;BME280;29616;51.950;8.572;2022-08-07T07:47:15;101030.28;;;26.38;62.33
7441;BME280;29616;51.950;8.572;2022-08-07T07:49:50;101025.59;;;25.40;63.69
7441;BME280;29616;51.950;8.572;2022-08-07T07:52:40;101009.72;;;26.08;65.94
7441;BME280;29616;51.950;8.572;2022-08-07T07:55:12;101028.25;;;27.11;57.77
7441;BME280;29616;51.950;8.572;2022-08-07T07:57:41;101024.22;;;25.98;65.19
7441;BME280;29616;51.950;8.572;2022-08-07T08:00:21;101023.91;;;25.88;66.55
7441;BME280;29616;51.950;8.572;2022-08-07T08:03:00;101007.28;;;26.11;60.82
7441;BME280;29616;51.950;8.572;2022-08-07T08:05:35;101017.38;;;25.51;73.05
7441;BME280;29616;51.950;8.572;2022-08-07T08:08:22;101021.41;;;25.55;66.21
7441;BME280;29616;51.950;8.572;2022-08-07T08:11:06;101008.50;;;25.23;70.81
7441;BME280;29616;51.950;8.572;2022-08-07T08:13:44;101009.72;;;25.33;69.43
7441;BME280;29616;51.950;8.572;2022-08-07T08:16:28;101011.38;;;25.48;69.76
7441;BME280;29616;51.950;8.572;2022-08-07T08:19:01;101009.06;;;26.06;68.70
7441;BME280;29616;51.950;8.572;2022-08-07T08:21:47;101001.66;;;26.11;65.80
7441;BME280;29616;51.950;8.572;2022-08-07T08:24:36;101008.56;;;26.33;63.97
7441;BME280;29616;51.950;8.572;2022-08-07T08:27:43;101009.81;;;27.15;58.31
7441;BME280;29616;51.950;8.572;2022-08-07T08:30:25;101007.34;;;27.07;55.52
7441;BME280;29616;51.950;8.572;2022-08-07T08:32:58;101011.06;;;27.19;58.18
7441;BME280;29616;51.950;8.572;2022-08-07T08:35:27;101011.28;;;27.59;56.49
7441;BME280;29616;51.950;8.572;2022-08-07T08:38:12;101019.13;;;27.80;52.98
7441;BME280;29616;51.950;8.572;2022-08-07T08:40:47;101005.03;;;27.45;52.58
7441;BME280;29616;51.950;8.572;2022-08-07T08:43:20;101001.53;;;27.20;50.11
7441;BME280;29616;51.950;8.572;2022-08-07T08:46:08;100998.44;;;26.51;50.53
7441;BME280;29616;51.950;8.572;2022-08-07T08:48:45;100997.78;;;25.94;49.13
7441;BME280;29616;51.950;8.572;2022-08-07T08:51:18;100987.63;;;26.36;50.14
7441;BME280;29616;51.950;8.572;2022-08-07T08:54:18;100988.66;;;26.23;50.33
7441;BME280;29616;51.950;8.572;2022-08-07T08:56:51;100995.78;;;26.37;50.31
7441;BME280;29616;51.950;8.572;2022-08-07T08:59:25;100981.94;;;26.42;49.33
7441;BME280;29616;51.950;8.572;2022-08-07T09:01:59;100976.50;;;27.07;48.70
7441;BME280;29616;51.950;8.572;2022-08-07T09:04:42;100988.78;;;27.36;48.54
7441;BME280;29616;51.950;8.572;2022-08-07T09:07:15;100990.28;;;27.50;48.39
7441;BME280;29616;51.950;8.572;2022-08-07T09:09:56;100992.00;;;27.74;48.17
7441;BME280;29616;51.950;8.572;2022-08-07T09:12:36;100984.84;;;28.53;43.89
7441;BME280;29616;51.950;8.572;2022-08-07T09:15:30;100989.84;;;28.62;44.49
7441;BME280;29616;51.950;8.572;2022-08-07T09:18:30;100991.91;;;28.04;44.03
7441;BME280;29616;51.950;8.572;2022-08-07T09:21:09;100999.00;;;28.58;43.41
7441;BME280;29616;51.950;8.572;2022-08-07T09:24:02;101003.16;;;29.23;43.15
7441;BME280;29616;51.950;8.572;2022-08-07T09:26:54;101003.00;;;29.30;42.47
7441;BME280;29616;51.950;8.572;2022-08-07T09:29:25;100995.41;;;29.02;41.91
7441;BME280;29616;51.950;8.572;2022-08-07T09:32:20;100979.75;;;28.78;43.06
7441;BME280;29616;51.950;8.572;2022-08-07T09:34:57;100981.88;;;28.08;43.42
7441;BME280;29616;51.950;8.572;2022-08-07T09:37:53;100975.50;;;28.01;44.23
7441;BME280;29616;51.950;8.572;2022-08-07T09:40:28;100980.66;;;28.15;43.41
7441;BME280;29616;51.950;8.572;2022-08-07T09:43:15;100978.38;;;28.80;45.58
7441;BME280;29616;51.950;8.572;2022-08-07T09:46:16;100980.66;;;29.12;43.40
7441;BME280;29616;51.950;8.572;2022-08-07T09:49:12;100981.84;;;29.77;44.12
7441;BME280;29616;51.950;8.572;2022-08-07T09:52:07;100986.38;;;28.20;47.96
7441;BME280;29616;51.950;8.572;2022-08-07T09:55:06;100969.66;;;26.25;52.59
7441;BME280;29616;51.950;8.572;2022-08-07T09:58:20;100963.94;;;25.77;53.45
7441;BME280;29616;51.950;8.572;2022-08-07T10:01:06;100970.50;;;25.47;52.00
7441;BME280;29616;51.950;8.572;2022-08-07T10:04:08;100973.72;;;25.12;52.54
7441;BME280;29616;51.950;8.572;2022-08-07T10:06:54;100956.00;;;25.00;53.59
7441;BME280;29616;51.950;8.572;2022-08-07T10:09:58;100963.25;;;24.70;54.80
7441;BME280;29616;51.950;8.572;2022-08-07T10:12:42;100959.97;;;24.42;56.57
7441;BME280;29616;51.950;8.572;2022-08-07T10:15:48;100953.88;;;24.58;59.85
7441;BME280;29616;51.950;8.572;2022-08-07T10:21:22;100953.75;;;26.56;55.91
7441;BME280;29616;51.950;8.572;2022-08-07T10:24:32;100942.94;;;26.41;51.21
7441;BME280;29616;51.950;8.572;2022-08-07T10:27:13;100951.22;;;25.57;53.20
7441;BME280;29616;51.950;8.572;2022-08-07T10:29:59;100944.91;;;25.37;54.49
7441;BME280;29616;51.950;8.572;2022-08-07T10:35:28;100930.72;;;25.63;55.32
7441;BME280;29616;51.950;8.572;2022-08-07T10:38:34;100939.13;;;25.63;57.05
7441;BME280;29616;51.950;8.572;2022-08-07T10:41:19;100940.06;;;25.75;58.56
7441;BME280;29616;51.950;8.572;2022-08-07T10:44:14;100937.41;;;25.80;55.39
7441;BME280;29616;51.950;8.572;2022-08-07T10:46:58;100937.88;;;27.32;52.34
7441;BME280;29616;51.950;8.572;2022-08-07T10:49:33;100937.91;;;27.79;50.21
7441;BME280;29616;51.950;8.572;2022-08-07T10:52:18;100927.75;;;28.01;48.51
7441;BME280;29616;51.950;8.572;2022-08-07T10:55:06;100914.69;;;28.18;49.02
7441;BME280;29616;51.950;8.572;2022-08-07T10:58:04;100921.53;;;27.99;50.08
7441;BME280;29616;51.950;8.572;2022-08-07T11:00:42;100929.41;;;28.93;45.52
7441;BME280;29616;51.950;8.572;2022-08-07T11:03:28;100925.72;;;29.21;44.63
7441;BME280;29616;51.950;8.572;2022-08-07T11:06:19;100919.25;;;28.92;43.60
7441;BME280;29616;51.950;8.572;2022-08-07T11:08:57;100909.59;;;28.88;45.52
7441;BME280;29616;51.950;8.572;2022-08-07T11:11:30;100881.25;;;29.56;43.71
7441;BME280;29616;51.950;8.572;2022-08-07T11:14:06;100903.50;;;30.13;43.62
7441;BME280;29616;51.950;8.572;2022-08-07T11:16:58;100904.97;;;29.98;41.42
7441;BME280;29616;51.950;8.572;2022-08-07T11:19:46;100905.53;;;29.62;41.37
7441;BME280;29616;51.950;8.572;2022-08-07T11:22:24;100906.41;;;29.79;42.46
7441;BME280;29616;51.950;8.572;2022-08-07T11:25:13;100914.97;;;30.49;41.08
7441;BME280;29616;51.950;8.572;2022-08-07T11:27:49;100902.97;;;29.94;40.91
7441;BME280;29616;51.950;8.572;2022-08-07T11:30:33;100889.38;;;28.46;43.97
7441;BME280;29616;51.950;8.572;2022-08-07T11:33:15;100892.56;;;29.78;42.14
7441;BME280;29616;51.950;8.572;2022-08-07T11:35:49;100880.03;;;30.07;40.77
7441;BME280;29616;51.950;8.572;2022-08-07T11:38:29;100888.72;;;30.49;40.42
7441;BME280;29616;51.950;8.572;2022-08-07T11:41:03;100883.91;;;30.71;41.06
7441;BME280;29616;51.950;8.572;2022-08-07T11:43:36;100875.84;;;30.58;39.43
7441;BME280;29616;51.950;8.572;2022-08-07T11:46:37;100872.78;;;29.56;41.95
7441;BME280;29616;51.950;8.572;2022-08-07T11:49:29;100877.16;;;30.29;40.61
7441;BME280;29616;51.950;8.572;2022-08-07T11:52:41;100879.69;;;31.00;38.20
7441;BME280;29616;51.950;8.572;2022-08-07T11:55:20;100874.97;;;30.52;42.24
7441;BME280;29616;51.950;8.572;2022-08-07T11:58:15;100871.03;;;30.85;39.57
7441;BME280;29616;51.950;8.572;2022-08-07T12:01:05;100869.22;;;31.01;39.19
7441;BME280;29616;51.950;8.572;2022-08-07T12:03:52;100874.38;;;30.82;38.27
7441;BME280;29616;51.950;8.572;2022-08-07T12:06:33;100858.59;;;30.81;39.18
7441;BME280;29616;51.950;8.572;2022-08-07T12:09:21;100862.84;;;29.70;40.60
7441;BME280;29616;51.950;8.572;2022-08-07T12:11:54;100860.34;;;28.69;41.04
7441;BME280;29616;51.950;8.572;2022-08-07T12:14:45;100851.22;;;27.71;42.21
7441;BME280;29616;51.950;8.572;2022-08-07T12:17:29;100857.66;;;26.78;45.15
7441;BME280;29616;51.950;8.572;2022-08-07T12:20:03;100845.97;;;26.52;45.91
7441;BME280;29616;51.950;8.572;2022-08-07T12:23:04;100859.34;;;26.38;47.41
7441;BME280;29616;51.950;8.572;2022-08-07T12:25:44;100862.72;;;26.10;47.78
7441;BME280;29616;51.950;8.572;2022-08-07T12:28:40;100856.66;;;25.95;49.60
7441;BME280;29616;51.950;8.572;2022-08-07T12:31:18;100831.94;;;25.74;53.91
7441;BME280;29616;51.950;8.572;2022-08-07T12:33:50;100840.69;;;26.73;59.42
7441;BME280;29616;51.950;8.572;2022-08-07T12:36:27;100834.44;;;27.47;50.42
7441;BME280;29616;51.950;8.572;2022-08-07T12:39:00;100835.88;;;29.36;49.25
7441;BME280;29616;51.950;8.572;2022-08-07T12:41:51;100840.47;;;30.45;44.91
7441;BME280;29616;51.950;8.572;2022-08-07T12:44:20;100840.16;;;29.98;41.96
7441;BME280;29616;51.950;8.572;2022-08-07T12:47:01;100841.38;;;30.08;43.00
7441;BME280;29616;51.950;8.572;2022-08-07T12:49:36;100835.63;;;30.41;42.16
7441;BME280;29616;51.950;8.572;2022-08-07T12:52:23;100838.38;;;30.36;42.71
7441;BME280;29616;51.950;8.572;2022-08-07T12:55:01;100827.00;;;30.52;41.15
7441;BME280;29616;51.950;8.572;2022-08-07T12:57:37;100825.28;;;29.81;41.70
7441;BME280;29616;51.950;8.572;2022-08-07T13:00:30;100832.47;;;30.37;40.46
7441;BME280;29616;51.950;8.572;2022-08-07T13:03:18;100824.66;;;30.71;40.22
7441;BME280;29616;51.950;8.572;2022-08-07T13:06:15;100819.41;;;30.58;40.29
7441;BME280;29616;51.950;8.572;2022-08-07T13:08:58;100822.50;;;30.83;39.28
7441;BME280;29616;51.950;8.572;2022-08-07T13:11:38;100822.38;;;31.37;39.07
7441;BME280;29616;51.950;8.572;2022-08-07T13:14:45;100809.31;;;31.26;38.19
7441;BME280;29616;51.950;8.572;2022-08-07T13:17:24;100810.19;;;31.73;37.72
7441;BME280;29616;51.950;8.572;2022-08-07T13:20:11;100820.97;;;29.95;39.51
7441;BME280;29616;51.950;8.572;2022-08-07T13:22:46;100817.22;;;29.30;40.41
7441;BME280;29616;51.950;8.572;2022-08-07T13:25:24;100816.25;;;28.30;41.50
7441;BME280;29616;51.950;8.572;2022-08-07T13:27:59;100808.81;;;27.09;43.70
7441;BME280;29616;51.950;8.572;2022-08-07T13:30:46;100804.09;;;25.97;46.43
7441;BME280;29616;51.950;8.572;2022-08-07T13:33:31;100805.69;;;25.75;48.43
7441;BME280;29616;51.950;8.572;2022-08-07T13:36:21;100804.41;;;25.71;48.13
7441;BME280;29616;51.950;8.572;2022-08-07T13:38:57;100794.47;;;25.39;51.78
7441;BME280;29616;51.950;8.572;2022-08-07T13:41:32;100797.75;;;25.54;51.69
7441;BME280;29616;51.950;8.572;2022-08-07T13:44:07;100796.81;;;26.26;51.58
7441;BME280;29616;51.950;8.572;2022-08-07T13:46:44;100787.16;;;27.67;47.59
7441;BME280;29616;51.950;8.572;2022-08-07T13:49:17;100790.91;;;28.41;45.79
7441;BME280;29616;51.950;8.572;2022-08-07T13:52:06;100778.97;;;29.34;43.77
7441;BME280;29616;51.950;8.572;2022-08-07T13:54:55;100776.44;;;29.54;43.93
7441;BME280;29616;51.950;8.572;2022-08-07T13:57:27;100779.72;;;30.11;41.33
7441;BME280;29616;51.950;8.572;2022-08-07T14:00:05;100788.31;;;29.99;40.34
7441;BME280;29616;51.950;8.572;2022-08-07T14:02:54;100777.19;;;30.63;39.50
7441;BME280;29616;51.950;8.572;2022-08-07T14:05:24;100766.63;;;31.17;37.52
7441;BME280;29616;51.950;8.572;2022-08-07T14:08:05;100778.34;;;30.67;38.15
7441;BME280;29616;51.950;8.572;2022-08-07T14:10:34;100782.41;;;30.49;38.88
7441;BME280;29616;51.950;8.572;2022-08-07T14:13:11;100768.91;;;30.88;38.46